Time;durP1;ratioP1;P1;durP2;ratioP2;P2;SDS_P1;SDS_P2;PMS_P1;PMS_P2;Temp;Humidity;BMP_temperature;BMP_pressure;BME280_temperature;BME280_humidity;BME280_pressure;Samples;Min_cycle;Max_cycle;Signal;HPM_P1;HPM_P2
2023/04/04 00:00:51;;;;;;;;;10.25;9.25;;;;;1.60;65.76;99751.00;6296306;20;1822611;-47
2023/04/04 00:03:20;;;;;;;;;11.00;8.00;;;;;1.67;65.41;99753.47;6330726;20;1829517;-49
2023/04/04 00:05:50;;;;;;;;;10.75;10.00;;;;;1.73;65.19;99760.38;6327272;20;1831674;-49
2023/04/04 00:08:19;;;;;;;;;10.00;8.25;;;;;1.55;66.22;99756.38;6330526;20;1823222;-47
2023/04/04 00:10:47;;;;;;;;;12.50;10.00;;;;;1.57;66.69;99764.31;6307370;20;2779447;-49
2023/04/04 00:13:16;;;;;;;;;10.25;8.75;;;;;1.42;67.13;99766.41;6301463;20;1825419;-48
2023/04/04 00:15:45;;;;;;;;;9.25;9.25;;;;;1.59;66.55;99762.50;6330577;20;1810752;-48
2023/04/04 00:18:13;;;;;;;;;9.00;7.00;;;;;1.35;66.71;99759.50;6311246;20;3439995;-47
2023/04/04 00:20:41;;;;;;;;;10.00;9.00;;;;;1.42;66.65;99760.22;6307872;20;2752364;-49
2023/04/04 00:23:10;;;;;;;;;6.75;6.75;;;;;1.61;66.96;99760.69;6299089;20;1819098;-46
2023/04/04 00:25:39;;;;;;;;;8.00;7.75;;;;;1.60;66.85;99766.88;6329229;20;1819155;-49
2023/04/04 00:28:08;;;;;;;;;8.75;8.75;;;;;1.33;67.77;99769.25;6331493;20;1831732;-49
2023/04/04 00:30:36;;;;;;;;;11.00;10.00;;;;;1.37;67.70;99763.00;6311359;20;2775334;-49
2023/04/04 00:33:05;;;;;;;;;10.75;10.00;;;;;1.26;68.04;99759.72;6292914;20;1822323;-47
2023/04/04 00:35:35;;;;;;;;;12.17;8.83;;;;;1.34;67.95;99756.88;6352164;20;1812795;-50
2023/04/04 00:38:04;;;;;;;;;10.25;9.00;;;;;1.24;68.90;99750.97;6299340;20;1831586;-49
2023/04/04 00:40:46;;;;;;;;;10.00;9.00;;;;;1.19;68.61;99752.84;6326190;20;1805545;-48
2023/04/04 00:43:15;;;;;;;;;9.00;9.00;;;;;1.26;68.25;99743.84;6307982;20;3464949;-49
2023/04/04 00:45:43;;;;;;;;;10.00;8.00;;;;;1.15;69.04;99733.50;6276785;20;2769239;-49
2023/04/04 00:48:12;;;;;;;;;11.00;9.00;;;;;1.22;69.02;99732.47;6275259;20;2769047;-50
2023/04/04 00:50:40;;;;;;;;;11.25;9.50;;;;;1.02;70.20;99735.56;6295733;20;1812658;-49
2023/04/04 00:53:09;;;;;;;;;14.25;9.50;;;;;1.04;70.65;99728.47;6327642;20;1822244;-47
2023/04/04 00:55:39;;;;;;;;;9.50;8.50;;;;;0.96;70.88;99725.13;6310200;20;2753496;-47
2023/04/04 00:58:07;;;;;;;;;9.00;9.00;;;;;0.76;71.47;99703.53;6309786;20;2754474;-46
2023/04/04 01:00:37;;;;;;;;;8.00;7.50;;;;;1.07;71.05;99701.94;6325264;20;1819129;-46
2023/04/04 01:03:06;;;;;;;;;9.33;9.00;;;;;1.00;71.34;99695.09;6310193;20;3461754;-48
2023/04/04 01:05:34;;;;;;;;;7.67;7.67;;;;;0.92;70.75;99691.72;6309303;20;3451412;-46
2023/04/04 01:08:02;;;;;;;;;14.00;9.50;;;;;0.97;69.79;99678.41;6306935;20;2771111;-48
2023/04/04 01:10:31;;;;;;;;;14.00;12.00;;;;;0.87;70.51;99693.63;6277960;20;2779413;-47
2023/04/04 01:13:01;;;;;;;;;6.00;6.00;;;;;0.81;70.80;99680.53;6296706;20;1812861;-46
2023/04/04 01:15:32;;;;;;;;;12.40;10.80;;;;;0.80;71.15;99684.06;6346550;20;2489861;-45
2023/04/04 01:18:03;;;;;;;;;10.50;9.00;;;;;0.71;71.73;99677.22;6308493;20;2751376;-49
2023/04/04 01:20:41;;;;;;;;;9.25;9.25;;;;;0.79;71.72;99669.09;6323903;20;1819158;-46
2023/04/04 01:23:11;;;;;;;;;12.75;9.00;;;;;0.92;71.42;99670.56;6324937;20;1813307;-49
2023/04/04 01:25:39;;;;;;;;;12.00;12.00;;;;;0.79;70.97;99653.25;6306902;20;2789894;-46
2023/04/04 01:28:08;;;;;;;;;11.50;9.00;;;;;0.75;70.54;99664.81;6295048;20;1813896;-48
2023/04/04 01:30:39;;;;;;;;;8.75;8.25;;;;;0.85;70.77;99663.69;6329803;20;1819667;-50
2023/04/04 01:33:29;;;;;;;;;11.00;8.00;;;;;0.78;70.25;99656.81;6331153;20;1821228;-47
2023/04/04 01:36:10;;;;;;;;;11.50;9.50;;;;;0.79;70.60;99656.78;6332554;20;1822338;-50
2023/04/04 01:39:07;;;;;;;;;12.50;8.00;;;;;0.82;69.59;99642.63;6312513;20;2763791;-46
2023/04/04 01:41:36;;;;;;;;;9.50;8.25;;;;;0.89;69.46;99638.94;6295328;20;1819105;-47
2023/04/04 01:44:05;;;;;;;;;9.00;8.00;;;;;0.78;69.56;99636.53;6330754;20;1816948;-49
2023/04/04 01:46:36;;;;;;;;;11.00;9.00;;;;;0.91;69.11;99628.34;6331023;20;1827435;-48
2023/04/04 01:49:04;;;;;;;;;9.00;9.00;;;;;0.84;69.09;99630.22;6316983;20;2750282;-46
2023/04/04 01:51:32;;;;;;;;;14.00;10.00;;;;;0.95;69.28;99616.75;6279315;20;2776332;-46
2023/04/04 01:53:59;;;;;;;;;9.50;8.00;;;;;0.82;69.40;99621.50;6281771;20;2753799;-47
2023/04/04 01:56:27;;;;;;;;;10.00;8.00;;;;;0.76;69.39;99606.63;6315401;20;2766957;-47
2023/04/04 01:58:56;;;;;;;;;9.25;9.25;;;;;0.79;68.74;99605.69;6333887;20;1825343;-47
2023/04/04 02:01:24;;;;;;;;;8.00;8.00;;;;;0.80;68.46;99604.78;6332668;20;1814751;-48
2023/04/04 02:03:52;;;;;;;;;12.00;9.00;;;;;0.85;68.48;99605.56;6320590;20;2761745;-46
2023/04/04 02:06:20;;;;;;;;;8.50;7.00;;;;;0.84;68.98;99601.16;6312353;20;2743058;-47
2023/04/04 02:08:49;;;;;;;;;10.00;9.00;;;;;0.84;68.22;99599.41;6329280;20;1811266;-48
2023/04/04 02:11:17;;;;;;;;;8.00;5.33;;;;;0.85;67.99;99587.06;6310209;20;3465962;-48
2023/04/04 02:13:46;;;;;;;;;10.75;8.75;;;;;0.89;67.71;99591.34;6311562;20;2751370;-46
2023/04/04 02:16:14;;;;;;;;;8.67;7.33;;;;;0.84;67.71;99593.22;6313299;20;3458596;-48
2023/04/04 02:18:43;;;;;;;;;10.00;9.00;;;;;0.87;68.15;99587.91;6328844;20;1824153;-47
2023/04/04 02:21:12;;;;;;;;;11.67;10.00;;;;;0.88;67.45;99587.84;6331975;20;1817006;-45
2023/04/04 02:23:40;;;;;;;;;10.00;10.00;;;;;0.90;67.53;99582.53;6311310;20;3484608;-49
2023/04/04 02:26:08;;;;;;;;;10.00;7.50;;;;;0.90;67.32;99587.81;6280883;20;2761741;-46
2023/04/04 02:28:36;;;;;;;;;9.00;7.33;;;;;0.84;67.55;99577.38;6284449;20;3455930;-48
2023/04/04 02:31:04;;;;;;;;;8.50;7.75;;;;;0.88;67.33;99579.91;6330951;20;1812875;-46
2023/04/04 02:33:33;;;;;;;;;12.25;10.00;;;;;1.01;66.96;99580.50;6328335;20;1818450;-47
2023/04/04 02:36:02;;;;;;;;;9.00;8.00;;;;;0.83;67.42;99586.22;6332553;20;1811792;-48
2023/04/04 02:38:31;;;;;;;;;7.75;7.00;;;;;0.89;66.30;99594.00;6331341;20;1819050;-48
2023/04/04 02:40:59;;;;;;;;;8.00;8.00;;;;;0.97;66.69;99591.16;6312254;20;3452359;-48
2023/04/04 02:43:27;;;;;;;;;12.50;9.00;;;;;0.88;66.25;99592.28;6311126;20;2758676;-47
2023/04/04 02:45:54;;;;;;;;;6.00;4.00;;;;;0.90;66.22;99590.47;6283132;20;3442963;-46
2023/04/04 02:48:24;;;;;;;;;10.00;8.00;;;;;1.04;66.29;99606.84;6331135;20;1820116;-45
2023/04/04 02:50:52;;;;;;;;;13.67;6.67;;;;;0.92;66.19;99604.50;6310349;20;3490899;-51
2023/04/04 02:53:20;;;;;;;;;8.00;8.00;;;;;0.90;66.07;99608.97;6280421;20;3448151;-47
2023/04/04 02:55:48;;;;;;;;;12.75;8.50;;;;;0.91;66.49;99615.97;6328107;20;1832097;-48
2023/04/04 02:58:17;;;;;;;;;13.00;9.00;;;;;0.88;66.21;99616.91;6332098;20;1822199;-46
2023/04/04 03:00:48;;;;;;;;;11.67;9.00;;;;;0.88;66.96;99616.91;6311036;20;3471104;-46
2023/04/04 03:03:16;;;;;;;;;10.50;8.50;;;;;0.87;66.20;99616.97;6297108;20;1832237;-47
2023/04/04 03:05:45;;;;;;;;;6.00;6.00;;;;;0.84;66.79;99617.00;6314242;20;2739829;-50
2023/04/04 03:08:12;;;;;;;;;6.00;6.00;;;;;0.84;66.68;99614.38;6312296;20;3460658;-46
2023/04/04 03:10:41;;;;;;;;;5.00;5.00;;;;;0.87;66.88;99609.91;6311013;20;3453491;-50
2023/04/04 03:13:09;;;;;;;;;7.00;7.00;;;;;0.94;66.13;99615.91;6314602;20;2739292;-47
2023/04/04 03:15:36;;;;;;;;;12.00;9.00;;;;;0.93;66.07;99613.31;6311982;20;2756566;-48
2023/04/04 03:18:05;;;;;;;;;8.75;7.75;;;;;0.96;66.20;99614.09;6300756;20;1808691;-46
2023/04/04 03:20:34;;;;;;;;;9.75;8.00;;;;;1.00;66.18;99610.50;6328117;20;1824322;-47
2023/04/04 03:23:03;;;;;;;;;8.25;8.00;;;;;0.89;66.34;99612.50;6332892;20;1811723;-46
2023/04/04 03:25:31;;;;;;;;;8.50;8.00;;;;;0.87;66.62;99615.19;6311808;20;2745101;-46
2023/04/04 03:28:09;;;;;;;;;9.50;7.75;;;;;0.94;65.90;99615.03;6332633;20;1825836;-50
2023/04/04 03:30:37;;;;;;;;;9.67;7.67;;;;;0.88;66.42;99616.06;6312754;20;3467004;-46
2023/04/04 03:33:08;;;;;;;;;7.50;6.00;;;;;0.86;66.66;99608.16;6284113;20;2745115;-47
2023/04/04 03:35:40;;;;;;;;;9.00;5.50;;;;;0.79;66.84;99613.59;6313603;20;2749314;-48
2023/04/04 03:38:10;;;;;;;;;10.00;10.00;;;;;0.88;66.42;99611.63;6330111;20;1815322;-51
2023/04/04 03:40:40;;;;;;;;;10.50;8.25;;;;;0.88;66.53;99616.06;6328120;20;1821007;-47
2023/04/04 03:43:09;;;;;;;;;11.75;8.50;;;;;0.80;66.66;99612.72;6332503;20;1823272;-46
2023/04/04 03:45:37;;;;;;;;;11.33;9.00;;;;;0.84;66.49;99610.00;6310306;20;3482679;-48
2023/04/04 03:48:05;;;;;;;;;5.67;5.67;;;;;0.81;66.57;99614.44;6283217;20;3461689;-49
2023/04/04 03:50:36;;;;;;;;;14.00;8.00;;;;;0.81;65.95;99609.16;6311888;20;2758635;-45
2023/04/04 03:53:05;;;;;;;;;9.25;9.25;;;;;0.77;65.88;99604.88;6330171;20;1814848;-47
2023/04/04 03:55:33;;;;;;;;;12.00;8.00;;;;;0.83;65.90;99596.78;6311889;20;2758604;-46
2023/04/04 03:58:02;;;;;;;;;9.00;7.75;;;;;0.78;65.53;99591.59;6296401;20;1831712;-45
2023/04/04 04:00:31;;;;;;;;;13.25;8.50;;;;;0.81;65.34;99594.16;6329618;20;1827482;-48
2023/04/04 04:03:00;;;;;;;;;7.75;7.75;;;;;0.80;66.04;99587.16;6328102;20;1816958;-48
2023/04/04 04:05:28;;;;;;;;;9.50;8.50;;;;;0.86;65.49;99589.66;6309270;20;2750328;-47
2023/04/04 04:07:56;;;;;;;;;11.00;10.00;;;;;0.72;65.79;99596.19;6314449;20;3396188;-48
2023/04/04 04:10:24;;;;;;;;;10.00;10.00;;;;;0.77;65.45;99592.53;6310493;20;2771124;-45
2023/04/04 04:12:52;;;;;;;;;6.00;6.00;;;;;0.74;65.09;99597.00;6298301;20;1816062;-47
2023/04/04 04:15:21;;;;;;;;;9.00;8.00;;;;;0.74;65.75;99592.59;6331646;20;1824355;-49
2023/04/04 04:17:50;;;;;;;;;11.75;6.00;;;;;0.80;65.95;99588.94;6331594;20;1829536;-46
2023/04/04 04:20:19;;;;;;;;;9.00;5.25;;;;;0.73;65.95;99595.25;6329749;20;1831677;-45
2023/04/04 04:22:48;;;;;;;;;8.25;8.25;;;;;0.74;65.88;99586.41;6327366;20;1816984;-51
2023/04/04 04:25:19;;;;;;;;;13.50;9.00;;;;;0.84;65.83;99593.22;6309752;20;2762864;-50
2023/04/04 04:27:47;;;;;;;;;8.67;8.67;;;;;0.87;66.50;99595.84;6313171;20;3437927;-46
2023/04/04 04:30:14;;;;;;;;;10.00;8.00;;;;;0.82;65.80;99589.78;6303513;20;2756513;-48
2023/04/04 04:32:43;;;;;;;;;12.75;9.50;;;;;0.89;65.21;99594.00;6326952;20;1835813;-49
2023/04/04 04:35:12;;;;;;;;;9.25;9.00;;;;;0.75;65.82;99583.75;6328813;20;1823523;-50
2023/04/04 04:37:40;;;;;;;;;9.50;9.00;;;;;0.82;65.70;99584.50;6311919;20;2747162;-51
2023/04/04 04:40:09;;;;;;;;;13.00;9.50;;;;;0.83;65.77;99588.88;6278691;20;2775445;-50
2023/04/04 04:42:46;;;;;;;;;16.50;10.00;;;;;0.96;65.85;99590.31;6329005;20;1825434;-46
2023/04/04 04:45:14;;;;;;;;;14.00;10.00;;;;;0.91;65.17;99589.53;6306704;20;2782825;-47
2023/04/04 04:47:42;;;;;;;;;30.50;27.00;;;;;1.02;64.74;99594.56;6273157;20;2500301;-47
2023/04/04 04:50:11;;;;;;;;;42.50;31.50;;;;;1.10;64.74;99600.53;6276746;20;2854462;-49
2023/04/04 04:52:40;;;;;;;;;15.67;11.67;;;;;1.06;64.14;99609.47;6275837;20;2793048;-53
2023/04/04 04:55:09;;;;;;;;;13.50;11.00;;;;;1.18;66.03;99608.28;6295126;20;2799383;-46
2023/04/04 04:57:39;;;;;;;;;10.50;8.67;;;;;1.36;63.55;99602.53;6304301;20;1816953;-48
2023/04/04 05:00:09;;;;;;;;;41.33;23.33;;;;;1.30;63.14;99605.34;6268987;20;3601460;-49
2023/04/04 05:02:37;;;;;;;;;38.00;28.50;;;;;1.40;64.56;99604.22;6267273;20;2500373;-49
2023/04/04 05:05:06;;;;;;;;;23.00;21.50;;;;;1.21;63.90;99598.53;6274054;20;2831546;-49
2023/04/04 05:07:34;;;;;;;;;17.50;15.00;;;;;1.39;64.19;99606.88;6278210;20;2819029;-46
2023/04/04 05:10:02;;;;;;;;;14.00;13.00;;;;;1.40;64.00;99609.50;6283876;20;3536786;-46
2023/04/04 05:12:32;;;;;;;;;18.20;14.20;;;;;1.49;63.45;99619.84;6337295;20;2819068;-47
2023/04/04 05:15:02;;;;;;;;;14.40;14.40;;;;;1.46;63.27;99614.63;6311273;20;2816987;-48
2023/04/04 05:17:30;;;;;;;;;9.67;9.00;;;;;1.42;64.11;99605.03;6285010;20;3463951;-46
2023/04/04 05:19:58;;;;;;;;;13.00;13.00;;;;;1.47;63.43;99620.78;6316767;20;2788124;-47
2023/04/04 05:22:27;;;;;;;;;15.00;13.50;;;;;1.66;63.47;99623.81;6281860;20;2788827;-49
2023/04/04 05:24:55;;;;;;;;;17.00;11.00;;;;;1.79;63.37;99616.41;6282611;20;2798186;-49
2023/04/04 05:27:26;;;;;;;;;20.86;14.14;;;;;1.68;62.55;99608.75;6321575;20;1829584;-48
2023/04/04 05:29:56;;;;;;;;;9.25;7.00;;;;;1.65;63.07;99614.16;6334287;20;1830037;-53
2023/04/04 05:32:26;;;;;;;;;14.40;12.80;;;;;1.68;62.65;99604.34;6340472;20;2817075;-47
2023/04/04 05:34:54;;;;;;;;;9.67;7.00;;;;;1.75;62.36;99605.91;6282392;20;3469207;-51
2023/04/04 05:37:22;;;;;;;;;13.00;9.25;;;;;1.84;61.75;99612.72;6333703;20;1807773;-47
2023/04/04 05:39:50;;;;;;;;;16.00;11.00;;;;;2.09;61.41;99612.94;6315667;20;2805477;-46
2023/04/04 05:42:20;;;;;;;;;17.80;11.60;;;;;2.06;61.88;99615.69;6307174;20;2817996;-46
2023/04/04 05:44:48;;;;;;;;;13.50;13.00;;;;;2.32;60.41;99612.28;6285484;20;2795205;-48
2023/04/04 05:47:16;;;;;;;;;7.00;7.00;;;;;2.53;58.82;99609.91;6279320;20;2737806;-46
2023/04/04 05:49:46;;;;;;;;;14.80;13.60;;;;;2.84;57.99;99621.31;6334147;20;2814968;-51
2023/04/04 05:52:15;;;;;;;;;14.00;13.80;;;;;2.95;58.15;99622.75;6303962;20;2797548;-51
2023/04/04 05:54:43;;;;;;;;;10.00;4.00;;;;;3.15;57.51;99619.47;6282643;20;2773085;-48
2023/04/04 05:57:11;;;;;;;;;11.00;8.00;;;;;3.89;54.51;99612.53;6280132;20;2757673;-54
2023/04/04 05:59:41;;;;;;;;;13.40;12.40;;;;;5.15;52.09;99623.72;6302607;20;2797149;-54
2023/04/04 06:02:11;;;;;;;;;11.60;10.00;;;;;5.78;50.51;99626.41;6308030;20;2789837;-52
2023/04/04 06:04:39;;;;;;;;;10.00;10.00;;;;;4.89;50.46;99635.38;6282548;20;2781648;-54
2023/04/04 06:07:07;;;;;;;;;11.00;10.50;;;;;5.47;50.04;99636.56;6279762;20;2787865;-51
2023/04/04 06:09:35;;;;;;;;;9.50;9.00;;;;;5.97;47.96;99640.69;6284373;20;2756849;-56
2023/04/04 06:12:03;;;;;;;;;4.67;3.67;;;;;4.65;50.09;99629.22;6286084;20;3459634;-59
2023/04/04 06:14:31;;;;;;;;;11.00;10.00;;;;;4.88;49.90;99618.56;6280856;20;2784685;-60
2023/04/04 06:16:59;;;;;;;;;11.00;8.00;;;;;5.39;49.68;99613.84;6285700;20;2755567;-60
2023/04/04 06:19:30;;;;;;;;;10.17;9.83;;;;;4.78;50.26;99611.88;6325143;20;1800351;-60
2023/04/04 06:21:58;;;;;;;;;11.25;10.25;;;;;4.09;52.09;99599.41;6300202;20;1809127;-52
2023/04/04 06:24:27;;;;;;;;;10.25;10.00;;;;;3.90;52.44;99595.69;6333163;20;1809751;-50
2023/04/04 06:26:55;;;;;;;;;15.50;13.50;;;;;4.12;52.50;99595.75;6312266;20;2800285;-50
2023/04/04 06:29:25;;;;;;;;;14.00;11.00;;;;;3.98;53.72;99601.59;6285152;20;2790931;-48
2023/04/04 06:31:57;;;;;;;;;13.43;10.14;;;;;4.52;51.85;99603.09;6323709;20;1808668;-51
2023/04/04 06:34:27;;;;;;;;;9.80;9.80;;;;;4.10;52.63;99594.94;6338459;20;2780493;-48
2023/04/04 06:36:56;;;;;;;;;10.00;10.00;;;;;5.82;48.84;99598.69;6299219;20;1823272;-49
2023/04/04 06:39:23;;;;;;;;;12.00;11.00;;;;;5.23;50.53;99594.97;6314402;20;2786758;-48
2023/04/04 06:41:51;;;;;;;;;7.67;7.00;;;;;3.93;53.49;99583.16;6284484;20;3461828;-52
2023/04/04 06:44:19;;;;;;;;;14.00;10.50;;;;;3.99;53.65;99587.38;6278104;20;2791072;-48
2023/04/04 06:46:47;;;;;;;;;14.00;13.00;;;;;4.13;53.87;99589.50;6285125;20;2788917;-50
2023/04/04 06:49:18;;;;;;;;;12.57;12.57;;;;;4.50;52.66;99594.34;6323553;20;1816991;-48
2023/04/04 06:51:49;;;;;;;;;9.50;9.50;;;;;5.64;49.35;99605.72;6313793;20;2767986;-49
2023/04/04 06:54:18;;;;;;;;;15.00;13.67;;;;;5.19;50.40;99601.38;6280302;20;2803649;-51
2023/04/04 06:56:47;;;;;;;;;12.00;12.00;;;;;5.30;50.45;99601.78;6313176;20;3546103;-50
2023/04/04 06:59:14;;;;;;;;;14.00;9.50;;;;;4.25;52.54;99598.84;6314631;20;2769007;-51
2023/04/04 07:01:46;;;;;;;;;13.29;10.71;;;;;4.85;55.06;99610.72;6325016;20;1812783;-51
2023/04/04 07:04:19;;;;;;;;;12.20;10.20;;;;;5.05;50.35;99618.78;6340206;20;2779480;-51
2023/04/04 07:06:46;;;;;;;;;10.00;10.00;;;;;5.17;51.66;99628.03;6280899;20;2796113;-50
2023/04/04 07:09:14;;;;;;;;;8.00;8.00;;;;;4.80;52.89;99623.31;6284365;20;2747139;-51
2023/04/04 07:11:55;;;;;;;;;11.50;8.00;;;;;4.53;53.51;99626.13;6279281;20;2769035;-54
2023/04/04 07:14:24;;;;;;;;;9.00;9.00;;;;;6.52;47.81;99627.56;6283967;20;2757631;-48
2023/04/04 07:16:53;;;;;;;;;15.50;14.00;;;;;6.70;48.74;99609.84;6283215;20;2791257;-51
2023/04/04 07:19:23;;;;;;;;;10.00;10.00;;;;;6.09;47.94;99629.50;6287172;20;2776355;-48
2023/04/04 07:21:51;;;;;;;;;10.00;10.00;;;;;4.79;52.12;99626.88;6281676;20;2781532;-50
2023/04/04 07:24:20;;;;;;;;;15.00;12.67;;;;;4.73;53.15;99624.47;6281954;20;2793055;-50
2023/04/04 07:26:50;;;;;;;;;14.40;13.00;;;;;5.45;52.06;99622.47;6338330;20;2807756;-50
2023/04/04 07:29:20;;;;;;;;;11.33;10.00;;;;;5.50;51.22;99624.91;6283597;20;3510703;-49
2023/04/04 07:31:48;;;;;;;;;8.50;8.50;;;;;5.33;51.30;99633.59;6311065;20;2740462;-49
2023/04/04 07:34:17;;;;;;;;;14.50;10.50;;;;;5.36;51.02;99627.28;6281603;20;2789959;-51
2023/04/04 07:36:46;;;;;;;;;14.40;10.00;;;;;5.06;52.09;99630.28;6309369;20;2798253;-49
2023/04/04 07:39:14;;;;;;;;;13.00;11.50;;;;;5.66;50.54;99627.78;6285354;20;2808617;-53
2023/04/04 07:41:42;;;;;;;;;11.00;11.00;;;;;6.10;49.18;99631.22;6281070;20;2791998;-51
2023/04/04 07:44:10;;;;;;;;;12.50;11.50;;;;;6.26;49.12;99619.88;6280817;20;2789973;-51
2023/04/04 07:46:39;;;;;;;;;13.00;10.00;;;;;6.34;48.96;99621.25;6282492;20;2774890;-53
2023/04/04 07:49:09;;;;;;;;;12.80;11.80;;;;;7.10;46.66;99623.97;6309277;20;2790905;-50
2023/04/04 07:51:40;;;;;;;;;16.29;12.14;;;;;6.23;50.04;99626.22;6322052;20;1801347;-48
2023/04/04 07:54:10;;;;;;;;;6.00;6.00;;;;;5.44;50.70;99622.50;6339283;20;2739934;-46
2023/04/04 07:56:38;;;;;;;;;10.67;10.67;;;;;5.13;50.06;99626.41;6312608;20;2796173;-48
2023/04/04 07:59:06;;;;;;;;;9.00;9.00;;;;;5.34;49.12;99624.69;6309998;20;2754462;-47
2023/04/04 08:01:38;;;;;;;;;13.86;11.00;;;;;5.66;48.81;99626.03;6322582;20;1805551;-48
2023/04/04 08:04:05;;;;;;;;;7.00;4.00;;;;;5.25;49.05;99641.91;6313350;20;2752374;-51
2023/04/04 08:06:35;;;;;;;;;11.00;10.00;;;;;5.02;50.31;99642.81;6281994;20;2795066;-49
2023/04/04 08:09:03;;;;;;;;;12.50;11.00;;;;;6.02;48.86;99652.03;6281504;20;2789052;-50
2023/04/04 08:11:33;;;;;;;;;13.40;9.60;;;;;6.40;47.60;99648.59;6306275;20;2777467;-48
2023/04/04 08:14:03;;;;;;;;;11.80;10.00;;;;;7.95;46.98;99639.31;6319979;20;2793002;-51
2023/04/04 08:16:33;;;;;;;;;4.25;3.25;;;;;7.23;44.83;99643.78;6302951;20;1819134;-47
2023/04/04 08:19:02;;;;;;;;;7.25;6.50;;;;;6.29;46.89;99636.63;6333360;20;1798272;-45
2023/04/04 08:21:32;;;;;;;;;9.40;7.40;;;;;6.35;46.27;99640.81;6335173;20;2753537;-45
2023/04/04 08:24:02;;;;;;;;;15.80;13.80;;;;;6.61;45.93;99655.66;6335998;20;2798203;-56
2023/04/04 08:26:30;;;;;;;;;10.00;10.00;;;;;6.87;47.70;99657.06;6282784;20;2787932;-49
2023/04/04 08:28:58;;;;;;;;;10.00;8.50;;;;;6.87;45.90;99642.88;6282052;20;2765257;-52
2023/04/04 08:31:27;;;;;;;;;7.00;5.00;;;;;7.08;45.91;99646.34;6282161;20;2748299;-51
2023/04/04 08:33:55;;;;;;;;;9.25;7.00;;;;;6.54;48.02;99630.19;6299258;20;1814442;-49
2023/04/04 08:36:27;;;;;;;;;9.57;9.57;;;;;6.18;47.95;99614.91;6358504;20;1814874;-48
2023/04/04 08:38:55;;;;;;;;;7.00;7.00;;;;;6.11;46.75;99629.47;6315530;20;2750396;-48
2023/04/04 08:41:25;;;;;;;;;7.00;4.75;;;;;5.98;47.37;99631.78;6306788;20;1805532;-48
2023/04/04 08:43:55;;;;;;;;;8.00;7.00;;;;;6.53;46.89;99618.66;6320976;20;2753556;-48
2023/04/04 08:46:25;;;;;;;;;7.50;7.50;;;;;6.62;46.83;99617.34;6322522;20;2746132;-49
2023/04/04 08:48:56;;;;;;;;;13.00;9.00;;;;;7.56;45.27;99616.38;6315481;20;2769043;-52
2023/04/04 08:51:28;;;;;;;;;7.00;7.00;;;;;6.83;46.29;99623.47;6301041;20;1806724;-49
2023/04/04 08:53:57;;;;;;;;;12.50;10.00;;;;;7.57;45.57;99607.41;6316266;20;2788815;-51
2023/04/04 08:56:25;;;;;;;;;7.00;4.00;;;;;6.95;44.96;99614.91;6287447;20;2748225;-50
2023/04/04 08:58:53;;;;;;;;;10.50;9.00;;;;;6.85;46.04;99624.28;6285824;20;2771205;-53
2023/04/04 09:01:22;;;;;;;;;8.50;7.50;;;;;6.84;44.93;99613.66;6288604;20;2737840;-47
2023/04/04 09:03:52;;;;;;;;;7.00;7.00;;;;;6.78;44.58;99607.69;6320519;20;2734737;-50
2023/04/04 09:06:20;;;;;;;;;9.00;9.00;;;;;7.61;45.11;99606.31;6315938;20;2750427;-50
2023/04/04 09:08:52;;;;;;;;;13.00;8.50;;;;;6.79;45.22;99601.44;6282078;20;2765910;-49
2023/04/04 09:11:22;;;;;;;;;14.50;14.50;;;;;7.38;46.09;99606.59;6283609;20;2810749;-52
2023/04/04 09:13:51;;;;;;;;;6.00;6.00;;;;;6.58;44.80;99608.63;6333817;20;1818971;-50
2023/04/04 09:16:19;;;;;;;;;12.00;9.00;;;;;6.94;45.32;99594.47;6315823;20;2774180;-55
2023/04/04 09:18:47;;;;;;;;;9.50;8.00;;;;;7.34;45.13;99583.66;6287526;20;2748330;-53
2023/04/04 09:21:15;;;;;;;;;15.00;11.00;;;;;6.74;46.36;99594.56;6283278;20;2792073;-51
2023/04/04 09:23:44;;;;;;;;;21.50;19.50;;;;;7.15;45.93;99608.59;6283264;20;2821236;-50
2023/04/04 09:26:12;;;;;;;;;35.00;33.50;;;;;7.31;45.07;99600.69;6284363;20;2504472;-53
2023/04/04 09:28:42;;;;;;;;;9.60;9.20;;;;;7.19;44.81;99599.50;6308595;20;2752448;-48
2023/04/04 09:31:11;;;;;;;;;15.33;14.33;;;;;7.19;46.18;99598.63;6317718;20;3547179;-49
2023/04/04 09:33:40;;;;;;;;;19.50;17.00;;;;;7.41;44.73;99601.97;6318826;20;2824194;-50
2023/04/04 09:36:12;;;;;;;;;9.00;9.00;;;;;6.95;44.97;99595.34;6326318;20;1804518;-48
2023/04/04 09:38:43;;;;;;;;;17.50;15.00;;;;;7.61;44.99;99600.97;6282031;20;2500296;-50
2023/04/04 09:41:15;;;;;;;;;7.25;7.00;;;;;7.17;45.54;99600.50;6303815;20;1803625;-49
2023/04/04 09:43:45;;;;;;;;;15.00;15.00;;;;;7.98;45.04;99593.72;6315287;20;3531603;-48
2023/04/04 09:46:14;;;;;;;;;10.00;10.00;;;;;7.24;45.04;99604.59;6318489;20;2779475;-51
2023/04/04 09:48:52;;;;;;;;;9.00;9.00;;;;;7.29;45.45;99607.03;6284663;20;2744079;-53
2023/04/04 09:51:20;;;;;;;;;8.00;8.00;;;;;7.41;43.86;99601.09;6287378;20;2736707;-52
2023/04/04 09:53:51;;;;;;;;;8.80;7.80;;;;;7.55;44.98;99608.41;6340920;20;2743412;-49
2023/04/04 09:56:19;;;;;;;;;10.00;10.00;;;;;7.32;43.85;99601.53;6314033;20;2787784;-49
2023/04/04 09:58:47;;;;;;;;;14.00;13.50;;;;;7.73;42.94;99594.13;6290911;20;2808641;-47
2023/04/04 10:01:30;;;;;;;;;7.00;5.00;;;;;7.56;44.22;99597.66;6283381;20;2748195;-51
2023/04/04 10:04:04;;;;;;;;;23.33;22.00;;;;;7.84;43.58;99582.88;6308400;20;3589931;-53
2023/04/04 10:06:37;;;;;;;;;3.75;3.50;;;;;7.52;44.08;99581.88;6297929;20;1813843;-51
2023/04/04 10:09:07;;;;;;;;;23.00;22.00;;;;;8.16;44.35;99582.97;6314982;20;3571103;-50
2023/04/04 10:11:37;;;;;;;;;16.00;14.33;;;;;8.51;44.19;99590.00;6280608;20;3534619;-49
2023/04/04 10:14:05;;;;;;;;;11.00;10.00;;;;;8.22;44.23;99588.88;6279792;20;2783739;-49
2023/04/04 10:16:38;;;;;;;;;9.50;9.50;;;;;7.95;42.55;99587.66;6277430;20;2772343;-51
2023/04/04 10:19:07;;;;;;;;;16.00;14.50;;;;;7.97;43.04;99583.09;6283680;20;2819028;-50
2023/04/04 10:21:36;;;;;;;;;15.33;10.33;;;;;8.12;42.70;99593.84;6280194;20;3529450;-52
2023/04/04 10:24:08;;;;;;;;;10.00;9.50;;;;;8.17;42.90;99590.94;6319520;20;2768182;-50
2023/04/04 10:26:37;;;;;;;;;17.50;17.50;;;;;8.45;42.28;99585.00;6287410;20;2830489;-50
2023/04/04 10:29:06;;;;;;;;;28.67;27.00;;;;;8.21;42.01;99587.13;6280504;20;3598238;-50
2023/04/04 10:31:41;;;;;;;;;21.00;19.50;;;;;8.14;40.99;99586.63;6278464;20;2500282;-49
2023/04/04 10:34:27;;;;;;;;;20.50;16.00;;;;;8.07;41.67;99585.19;6284056;20;2823190;-55
2023/04/04 10:37:14;;;;;;;;;12.50;9.00;;;;;8.64;40.44;99584.00;6283045;20;2779525;-53
2023/04/04 10:40:09;;;;;;;;;10.00;8.00;;;;;8.20;41.50;99589.91;6315402;20;2754843;-55
2023/04/04 10:42:43;;;;;;;;;7.00;7.00;;;;;7.55;41.75;99587.91;6286287;20;2748201;-54
2023/04/04 10:45:17;;;;;;;;;12.71;10.86;;;;;7.83;40.89;99592.69;6326989;20;1812397;-52
2023/04/04 10:47:50;;;;;;;;;21.00;15.33;;;;;7.91;41.29;99584.28;6315389;20;3548279;-53
2023/04/04 10:50:20;;;;;;;;;11.00;9.00;;;;;8.13;41.57;99576.84;6282419;20;2758770;-50
2023/04/04 10:52:51;;;;;;;;;5.83;4.33;;;;;7.97;40.10;99591.97;6324891;20;1800328;-50
2023/04/04 10:55:20;;;;;;;;;16.00;14.50;;;;;8.22;40.04;99585.34;6284859;20;2814465;-49
2023/04/04 10:57:52;;;;;;;;;5.50;3.00;;;;;7.87;40.61;99575.56;6301846;20;1818047;-50
2023/04/04 11:00:23;;;;;;;;;10.00;10.00;;;;;7.81;40.80;99583.91;6337285;20;2792009;-55
2023/04/04 11:02:59;;;;;;;;;7.25;7.00;;;;;8.04;41.06;99582.69;6304360;20;1806507;-52
2023/04/04 11:05:32;;;;;;;;;5.00;5.00;;;;;8.55;40.18;99586.19;6318275;20;2733621;-51
2023/04/04 11:08:04;;;;;;;;;7.00;4.00;;;;;7.96;40.59;99587.59;6335211;20;1818391;-52
2023/04/04 11:10:41;;;;;;;;;5.00;5.00;;;;;8.07;40.67;99577.19;6314767;20;2746224;-50
2023/04/04 11:13:22;;;;;;;;;10.00;10.00;;;;;8.70;39.42;99589.00;6313071;20;2790877;-52
2023/04/04 11:16:08;;;;;;;;;4.00;2.00;;;;;8.27;39.83;99583.28;6303638;20;1817050;-51
2023/04/04 11:18:40;;;;;;;;;10.00;8.80;;;;;8.67;39.30;99583.81;6339442;20;2775273;-49
2023/04/04 11:21:13;;;;;;;;;7.00;6.00;;;;;8.81;37.98;99588.41;6283557;20;2773202;-52
2023/04/04 11:23:48;;;;;;;;;3.33;3.33;;;;;8.73;39.34;99583.47;6303152;20;1818124;-51
2023/04/04 11:26:25;;;;;;;;;5.75;4.25;;;;;8.64;39.48;99584.84;6333987;20;1825515;-50
2023/04/04 11:29:06;;;;;;;;;11.50;8.00;;;;;8.49;39.93;99575.84;6314195;20;2756567;-53